N914BD KHPN-KRIC
Flight info
| Callsign | N914BD |
|---|---|
| Flight time | 0h 51m |
| Altitude | 43000 |
| Route | WHITE Q409 TRPOD/N0295F160 T303 JAMIE |
| Aircraft | GLF5/M-SDFWEGERGFE/L |
Departure
| Time | 2026-04-26 22:21 |
|---|---|
| Airport | Westchester County Airport (KHPN) |
Arrival
| Time | 2026-04-26 23:13 |
|---|---|
| Airport | Richmond International Airport (KRIC) |
| Time | Latitude | Longitude | Altitude | Speed | Heading |
|---|---|---|---|---|---|
| 2026-04-26 22:14 | 41.06345 | -73.70921 | 398 ft | 0 kts | 191° |
| 2026-04-26 22:16 | 41.06342 | -73.70937 | 398 ft | 4 kts | 292° |
| 2026-04-26 22:16 | 41.06378 | -73.70984 | 400 ft | 9 kts | 312° |
| 2026-04-26 22:17 | 41.06436 | -73.71029 | 401 ft | 10 kts | 352° |
| 2026-04-26 22:17 | 41.06486 | -73.71088 | 402 ft | 11 kts | 286° |
| 2026-04-26 22:17 | 41.06507 | -73.71207 | 402 ft | 16 kts | 282° |
| 2026-04-26 22:17 | 41.06535 | -73.71384 | 401 ft | 22 kts | 281° |
| 2026-04-26 22:18 | 41.06642 | -73.71391 | 400 ft | 22 kts | 33° |
| 2026-04-26 22:18 | 41.06785 | -73.71266 | 403 ft | 25 kts | 33° |
| 2026-04-26 22:18 | 41.06932 | -73.71135 | 410 ft | 25 kts | 35° |
| 2026-04-26 22:18 | 41.07041 | -73.71105 | 414 ft | 15 kts | 331° |
| 2026-04-26 22:19 | 41.07128 | -73.71172 | 417 ft | 14 kts | 330° |
| 2026-04-26 22:19 | 41.07218 | -73.71241 | 421 ft | 16 kts | 329° |
| 2026-04-26 22:19 | 41.07325 | -73.71322 | 425 ft | 19 kts | 330° |
| 2026-04-26 22:19 | 41.07448 | -73.71417 | 426 ft | 17 kts | 329° |
| 2026-04-26 22:20 | 41.07517 | -73.71403 | 427 ft | 10 kts | 58° |
| 2026-04-26 22:20 | 41.07538 | -73.71348 | 429 ft | 10 kts | 76° |
| 2026-04-26 22:20 | 41.07513 | -73.71298 | 429 ft | 0 kts | 149° |
| 2026-04-26 22:21 | 41.07401 | -73.71210 | 427 ft | 64 kts | 149° |
| 2026-04-26 22:21 | 41.06781 | -73.70729 | 410 ft | 130 kts | 149° |
| 2026-04-26 22:21 | 41.05906 | -73.70117 | 778 ft | 159 kts | 152° |
| 2026-04-26 22:21 | 41.04929 | -73.69943 | 2297 ft | 147 kts | 191° |
| 2026-04-26 22:22 | 41.03946 | -73.70673 | 2734 ft | 198 kts | 217° |
| 2026-04-26 22:22 | 41.02690 | -73.71892 | 3290 ft | 246 kts | 212° |
| 2026-04-26 22:22 | 41.01134 | -73.73103 | 4305 ft | 272 kts | 207° |
| 2026-04-26 22:22 | 40.99480 | -73.74200 | 5803 ft | 277 kts | 204° |
| 2026-04-26 22:23 | 40.97718 | -73.75253 | 7125 ft | 288 kts | 203° |
| 2026-04-26 22:23 | 40.95898 | -73.76272 | 8658 ft | 290 kts | 203° |
| 2026-04-26 22:23 | 40.94077 | -73.77256 | 10081 ft | 294 kts | 203° |
| 2026-04-26 22:23 | 40.92166 | -73.78270 | 11403 ft | 302 kts | 204° |
| 2026-04-26 22:24 | 40.90261 | -73.79269 | 12662 ft | 310 kts | 205° |
| 2026-04-26 22:24 | 40.88279 | -73.80305 | 14020 ft | 314 kts | 205° |
| 2026-04-26 22:24 | 40.86260 | -73.81356 | 15247 ft | 323 kts | 206° |
| 2026-04-26 22:24 | 40.84174 | -73.82439 | 16588 ft | 328 kts | 206° |
| 2026-04-26 22:25 | 40.82066 | -73.83533 | 17808 ft | 336 kts | 207° |
| 2026-04-26 22:25 | 40.79893 | -73.84659 | 19055 ft | 343 kts | 207° |
| 2026-04-26 22:25 | 40.77692 | -73.85796 | 20303 ft | 350 kts | 207° |
| 2026-04-26 22:25 | 40.75414 | -73.86973 | 21569 ft | 356 kts | 208° |
| 2026-04-26 22:26 | 40.73114 | -73.88162 | 22785 ft | 363 kts | 208° |
| 2026-04-26 22:26 | 40.70763 | -73.89375 | 23950 ft | 371 kts | 208° |
| 2026-04-26 22:26 | 40.68336 | -73.90628 | 25239 ft | 375 kts | 208° |
| 2026-04-26 22:26 | 40.65936 | -73.91861 | 26469 ft | 370 kts | 208° |
| 2026-04-26 22:27 | 40.63472 | -73.93137 | 26893 ft | 394 kts | 208° |
| 2026-04-26 22:27 | 40.60959 | -73.94423 | 28404 ft | 388 kts | 208° |
| 2026-04-26 22:27 | 40.58461 | -73.95709 | 29487 ft | 394 kts | 208° |
| 2026-04-26 22:27 | 40.55918 | -73.97015 | 30556 ft | 399 kts | 208° |
| 2026-04-26 22:28 | 40.53321 | -73.98349 | 31488 ft | 404 kts | 207° |
| 2026-04-26 22:28 | 40.50732 | -73.99676 | 32468 ft | 404 kts | 207° |
| 2026-04-26 22:28 | 40.48088 | -74.01032 | 33220 ft | 410 kts | 207° |
| 2026-04-26 22:28 | 40.45444 | -74.02385 | 34063 ft | 412 kts | 206° |
| 2026-04-26 22:29 | 40.42791 | -74.03740 | 34801 ft | 413 kts | 206° |
| 2026-04-26 22:29 | 40.40091 | -74.05119 | 35444 ft | 416 kts | 206° |
| 2026-04-26 22:29 | 40.37422 | -74.06481 | 36069 ft | 418 kts | 206° |
| 2026-04-26 22:29 | 40.34707 | -74.07864 | 36745 ft | 420 kts | 206° |
| 2026-04-26 22:30 | 40.32008 | -74.09241 | 37238 ft | 426 kts | 206° |
| 2026-04-26 22:30 | 40.29213 | -74.10665 | 37843 ft | 429 kts | 206° |
| 2026-04-26 22:30 | 40.26481 | -74.12053 | 38602 ft | 427 kts | 206° |
| 2026-04-26 22:30 | 40.23739 | -74.13444 | 39480 ft | 421 kts | 207° |
| 2026-04-26 22:31 | 40.21039 | -74.14817 | 40093 ft | 420 kts | 206° |
| 2026-04-26 22:31 | 40.18332 | -74.16193 | 40519 ft | 424 kts | 206° |
| 2026-04-26 22:31 | 40.15585 | -74.17587 | 40841 ft | 430 kts | 206° |
| 2026-04-26 22:31 | 40.12726 | -74.19037 | 40821 ft | 444 kts | 206° |
| 2026-04-26 22:32 | 40.09851 | -74.20490 | 41445 ft | 441 kts | 205° |
| 2026-04-26 22:32 | 40.07014 | -74.21922 | 42000 ft | 440 kts | 206° |
| 2026-04-26 22:32 | 40.04174 | -74.23360 | 42365 ft | 443 kts | 205° |
| 2026-04-26 22:32 | 40.01338 | -74.24821 | 42825 ft | 440 kts | 209° |
| 2026-04-26 22:33 | 39.98782 | -74.26910 | 43180 ft | 432 kts | 220° |
| 2026-04-26 22:33 | 39.93950 | -74.31535 | 43185 ft | 431 kts | 220° |
| 2026-04-26 22:34 | 39.89037 | -74.36218 | 43197 ft | 450 kts | 219° |
| 2026-04-26 22:34 | 39.86502 | -74.38627 | 43180 ft | 461 kts | 219° |
| 2026-04-26 22:34 | 39.83885 | -74.41113 | 43188 ft | 470 kts | 220° |
| 2026-04-26 22:35 | 39.79026 | -74.46736 | 43181 ft | 464 kts | 229° |
| 2026-04-26 22:35 | 39.74584 | -74.52643 | 43169 ft | 457 kts | 229° |
| 2026-04-26 22:36 | 39.70143 | -74.58527 | 43166 ft | 457 kts | 229° |
| 2026-04-26 22:36 | 39.65685 | -74.64420 | 43163 ft | 459 kts | 229° |
| 2026-04-26 22:37 | 39.61220 | -74.70310 | 43179 ft | 459 kts | 228° |
| 2026-04-26 22:37 | 39.56760 | -74.76185 | 43175 ft | 458 kts | 229° |
| 2026-04-26 22:38 | 39.52321 | -74.82017 | 43176 ft | 459 kts | 228° |
| 2026-04-26 22:38 | 39.47831 | -74.87907 | 43177 ft | 459 kts | 228° |
| 2026-04-26 22:39 | 39.43359 | -74.93761 | 43177 ft | 459 kts | 228° |
| 2026-04-26 22:39 | 39.38871 | -74.99623 | 43173 ft | 460 kts | 228° |
| 2026-04-26 22:40 | 39.34390 | -75.05468 | 43174 ft | 459 kts | 228° |
| 2026-04-26 22:40 | 39.29879 | -75.11319 | 43174 ft | 460 kts | 226° |
| 2026-04-26 22:41 | 39.25161 | -75.16843 | 43174 ft | 461 kts | 225° |
| 2026-04-26 22:41 | 39.20415 | -75.22391 | 43172 ft | 461 kts | 225° |
| 2026-04-26 22:42 | 39.15697 | -75.27898 | 43170 ft | 461 kts | 225° |
| 2026-04-26 22:42 | 39.10922 | -75.33463 | 43166 ft | 462 kts | 225° |
| 2026-04-26 22:43 | 39.06178 | -75.38980 | 43167 ft | 462 kts | 225° |
| 2026-04-26 22:43 | 39.00998 | -75.43780 | 43182 ft | 470 kts | 203° |
| 2026-04-26 22:43 | 38.97771 | -75.44650 | 43190 ft | 477 kts | 190° |
| 2026-04-26 22:44 | 38.94498 | -75.45113 | 43174 ft | 479 kts | 190° |
| 2026-04-26 22:44 | 38.87881 | -75.46034 | 43166 ft | 478 kts | 190° |
| 2026-04-26 22:45 | 38.81282 | -75.46944 | 43166 ft | 478 kts | 190° |
| 2026-04-26 22:45 | 38.74654 | -75.47858 | 43169 ft | 479 kts | 189° |
| 2026-04-26 22:46 | 38.68055 | -75.48759 | 43164 ft | 479 kts | 190° |
| 2026-04-26 22:46 | 38.61508 | -75.49646 | 43025 ft | 459 kts | 190° |
| 2026-04-26 22:46 | 38.58421 | -75.50064 | 42935 ft | 443 kts | 190° |
| 2026-04-26 22:47 | 38.55375 | -75.50478 | 42604 ft | 438 kts | 190° |
| 2026-04-26 22:47 | 38.52341 | -75.50891 | 42087 ft | 440 kts | 190° |
| 2026-04-26 22:47 | 38.49307 | -75.51302 | 41528 ft | 441 kts | 190° |
| 2026-04-26 22:47 | 38.46246 | -75.51717 | 40937 ft | 440 kts | 190° |
| 2026-04-26 22:48 | 38.43241 | -75.52121 | 40364 ft | 437 kts | 191° |
| 2026-04-26 22:48 | 38.40240 | -75.52527 | 39782 ft | 435 kts | 190° |
| 2026-04-26 22:48 | 38.37239 | -75.52932 | 39166 ft | 433 kts | 190° |
| 2026-04-26 22:48 | 38.34266 | -75.53426 | 38549 ft | 429 kts | 198° |
| 2026-04-26 22:49 | 38.31484 | -75.54748 | 38019 ft | 424 kts | 208° |
| 2026-04-26 22:49 | 38.28795 | -75.56260 | 37405 ft | 428 kts | 208° |
| 2026-04-26 22:49 | 38.26064 | -75.57796 | 36802 ft | 428 kts | 208° |
| 2026-04-26 22:49 | 38.23331 | -75.59332 | 36253 ft | 429 kts | 208° |
| 2026-04-26 22:50 | 38.20636 | -75.60849 | 35778 ft | 433 kts | 207° |
| 2026-04-26 22:50 | 38.17844 | -75.62418 | 35218 ft | 434 kts | 207° |
| 2026-04-26 22:50 | 38.15101 | -75.63957 | 34654 ft | 435 kts | 207° |
| 2026-04-26 22:50 | 38.12372 | -75.65487 | 34030 ft | 431 kts | 207° |
| 2026-04-26 22:51 | 38.09659 | -75.67007 | 33439 ft | 424 kts | 207° |
| 2026-04-26 22:51 | 38.06966 | -75.68514 | 32865 ft | 418 kts | 207° |
| 2026-04-26 22:51 | 38.04348 | -75.69978 | 32315 ft | 411 kts | 207° |
| 2026-04-26 22:51 | 38.01725 | -75.71446 | 31761 ft | 405 kts | 207° |
| 2026-04-26 22:52 | 37.99353 | -75.73269 | 30682 ft | 405 kts | 225° |
| 2026-04-26 22:52 | 37.97514 | -75.75943 | 29595 ft | 406 kts | 236° |
| 2026-04-26 22:52 | 37.95918 | -75.78889 | 28501 ft | 410 kts | 240° |
| 2026-04-26 22:52 | 37.94427 | -75.81902 | 27733 ft | 407 kts | 242° |
| 2026-04-26 22:53 | 37.92973 | -75.84950 | 27146 ft | 400 kts | 243° |
| 2026-04-26 22:53 | 37.91560 | -75.87955 | 26606 ft | 393 kts | 243° |
| 2026-04-26 22:53 | 37.90198 | -75.90866 | 26103 ft | 386 kts | 243° |
| 2026-04-26 22:53 | 37.88844 | -75.93765 | 25592 ft | 379 kts | 243° |
| 2026-04-26 22:54 | 37.87509 | -75.96625 | 25087 ft | 373 kts | 243° |
| 2026-04-26 22:54 | 37.86203 | -75.99420 | 24603 ft | 367 kts | 244° |
| 2026-04-26 22:54 | 37.84915 | -76.02179 | 24140 ft | 365 kts | 244° |
| 2026-04-26 22:54 | 37.83630 | -76.04925 | 23689 ft | 365 kts | 244° |
| 2026-04-26 22:55 | 37.82348 | -76.07666 | 22996 ft | 370 kts | 244° |
| 2026-04-26 22:55 | 37.81034 | -76.10472 | 21820 ft | 373 kts | 243° |
| 2026-04-26 22:55 | 37.79740 | -76.13224 | 20743 ft | 358 kts | 243° |
| 2026-04-26 22:55 | 37.78509 | -76.15845 | 19770 ft | 347 kts | 244° |
| 2026-04-26 22:56 | 37.77297 | -76.18425 | 19142 ft | 342 kts | 244° |
| 2026-04-26 22:56 | 37.76079 | -76.21021 | 18706 ft | 347 kts | 244° |
| 2026-04-26 22:56 | 37.74852 | -76.23628 | 18190 ft | 344 kts | 244° |
| 2026-04-26 22:56 | 37.73632 | -76.26218 | 17666 ft | 342 kts | 243° |
| 2026-04-26 22:57 | 37.72416 | -76.28799 | 17133 ft | 340 kts | 243° |
| 2026-04-26 22:57 | 37.71217 | -76.31338 | 16668 ft | 337 kts | 243° |
| 2026-04-26 22:57 | 37.70023 | -76.33868 | 16219 ft | 334 kts | 243° |
| 2026-04-26 22:57 | 37.68855 | -76.36341 | 15785 ft | 332 kts | 243° |
| 2026-04-26 22:58 | 37.67665 | -76.38859 | 15334 ft | 332 kts | 243° |
| 2026-04-26 22:58 | 37.66483 | -76.41358 | 14902 ft | 330 kts | 243° |
| 2026-04-26 22:58 | 37.65312 | -76.43829 | 14462 ft | 327 kts | 243° |
| 2026-04-26 22:58 | 37.64158 | -76.46267 | 14037 ft | 325 kts | 243° |
| 2026-04-26 22:59 | 37.62993 | -76.48723 | 13603 ft | 324 kts | 243° |
| 2026-04-26 22:59 | 37.61847 | -76.51136 | 13179 ft | 322 kts | 243° |
| 2026-04-26 22:59 | 37.60706 | -76.53539 | 12753 ft | 319 kts | 243° |
| 2026-04-26 22:59 | 37.59561 | -76.55949 | 12330 ft | 317 kts | 243° |
| 2026-04-26 23:00 | 37.58441 | -76.58304 | 11916 ft | 314 kts | 243° |
| 2026-04-26 23:00 | 37.57365 | -76.60655 | 11722 ft | 307 kts | 247° |
| 2026-04-26 23:00 | 37.56399 | -76.63084 | 11706 ft | 310 kts | 248° |
| 2026-04-26 23:00 | 37.55449 | -76.65501 | 11440 ft | 312 kts | 247° |
| 2026-04-26 23:01 | 37.54483 | -76.67967 | 11053 ft | 310 kts | 247° |
| 2026-04-26 23:01 | 37.53550 | -76.70357 | 10657 ft | 307 kts | 247° |
| 2026-04-26 23:01 | 37.52615 | -76.72752 | 10253 ft | 304 kts | 247° |
| 2026-04-26 23:01 | 37.51680 | -76.75146 | 9849 ft | 301 kts | 247° |
| 2026-04-26 23:02 | 37.50768 | -76.77480 | 9457 ft | 298 kts | 247° |
| 2026-04-26 23:02 | 37.49873 | -76.79766 | 9012 ft | 283 kts | 247° |
| 2026-04-26 23:02 | 37.49038 | -76.81895 | 8696 ft | 264 kts | 247° |
| 2026-04-26 23:02 | 37.48254 | -76.83895 | 8394 ft | 244 kts | 247° |
| 2026-04-26 23:03 | 37.47520 | -76.85771 | 8073 ft | 240 kts | 247° |
| 2026-04-26 23:03 | 37.46783 | -76.87657 | 7718 ft | 239 kts | 247° |
| 2026-04-26 23:03 | 37.46051 | -76.89526 | 7414 ft | 238 kts | 246° |
| 2026-04-26 23:03 | 37.45321 | -76.91386 | 7213 ft | 234 kts | 246° |
| 2026-04-26 23:04 | 37.44600 | -76.93226 | 6801 ft | 235 kts | 246° |
| 2026-04-26 23:04 | 37.43883 | -76.95049 | 6530 ft | 228 kts | 246° |
| 2026-04-26 23:04 | 37.43197 | -76.96792 | 6190 ft | 221 kts | 246° |
| 2026-04-26 23:04 | 37.42531 | -76.98483 | 5889 ft | 214 kts | 246° |
| 2026-04-26 23:05 | 37.41881 | -77.00135 | 5605 ft | 208 kts | 247° |
| 2026-04-26 23:05 | 37.41243 | -77.01756 | 5331 ft | 202 kts | 247° |
| 2026-04-26 23:05 | 37.40633 | -77.03303 | 5068 ft | 196 kts | 247° |
| 2026-04-26 23:05 | 37.40031 | -77.04831 | 4806 ft | 192 kts | 247° |
| 2026-04-26 23:06 | 37.39451 | -77.06302 | 4563 ft | 189 kts | 247° |
| 2026-04-26 23:06 | 37.38873 | -77.07772 | 4320 ft | 188 kts | 247° |
| 2026-04-26 23:06 | 37.38289 | -77.09252 | 4067 ft | 188 kts | 247° |
| 2026-04-26 23:06 | 37.37713 | -77.10710 | 3821 ft | 187 kts | 247° |
| 2026-04-26 23:07 | 37.37132 | -77.12183 | 3570 ft | 186 kts | 247° |
| 2026-04-26 23:07 | 37.36562 | -77.13623 | 3324 ft | 185 kts | 247° |
| 2026-04-26 23:07 | 37.35990 | -77.15070 | 3075 ft | 184 kts | 247° |
| 2026-04-26 23:07 | 37.35424 | -77.16502 | 2831 ft | 183 kts | 247° |
| 2026-04-26 23:08 | 37.35062 | -77.17991 | 2563 ft | 175 kts | 278° |
| 2026-04-26 23:08 | 37.35496 | -77.19275 | 2490 ft | 155 kts | 323° |
| 2026-04-26 23:08 | 37.36373 | -77.20064 | 2362 ft | 155 kts | 334° |
| 2026-04-26 23:08 | 37.37257 | -77.20789 | 2125 ft | 149 kts | 334° |
| 2026-04-26 23:09 | 37.38109 | -77.21485 | 1855 ft | 142 kts | 334° |
| 2026-04-26 23:09 | 37.38912 | -77.22137 | 1677 ft | 133 kts | 335° |
| 2026-04-26 23:09 | 37.39690 | -77.22763 | 1673 ft | 132 kts | 334° |
| 2026-04-26 23:09 | 37.40477 | -77.23395 | 1674 ft | 134 kts | 335° |
| 2026-04-26 23:10 | 37.41246 | -77.24012 | 1667 ft | 122 kts | 334° |
| 2026-04-26 23:10 | 37.41940 | -77.24574 | 1615 ft | 114 kts | 336° |
| 2026-04-26 23:10 | 37.42599 | -77.25101 | 1616 ft | 113 kts | 335° |
| 2026-04-26 23:10 | 37.43274 | -77.25638 | 1586 ft | 115 kts | 335° |
| 2026-04-26 23:11 | 37.43957 | -77.26183 | 1463 ft | 115 kts | 335° |
| 2026-04-26 23:11 | 37.44633 | -77.26723 | 1316 ft | 115 kts | 334° |
| 2026-04-26 23:11 | 37.45306 | -77.27260 | 1166 ft | 115 kts | 334° |
| 2026-04-26 23:11 | 37.45972 | -77.27792 | 1018 ft | 114 kts | 334° |
| 2026-04-26 23:12 | 37.46645 | -77.28329 | 864 ft | 114 kts | 333° |
| 2026-04-26 23:12 | 37.47308 | -77.28860 | 716 ft | 113 kts | 333° |
| 2026-04-26 23:12 | 37.47970 | -77.29392 | 563 ft | 113 kts | 332° |
| 2026-04-26 23:12 | 37.48611 | -77.29923 | 384 ft | 114 kts | 331° |
| 2026-04-26 23:13 | 37.49289 | -77.30461 | 241 ft | 112 kts | 330° |
| 2026-04-26 23:13 | 37.49899 | -77.30951 | 159 ft | 91 kts | 329° |
| 2026-04-26 23:13 | 37.50250 | -77.31226 | 162 ft | 35 kts | 327° |
| 2026-04-26 23:13 | 37.50431 | -77.31373 | 162 ft | 31 kts | 330° |
| 2026-04-26 23:14 | 37.50666 | -77.31558 | 162 ft | 47 kts | 328° |
| 2026-04-26 23:14 | 37.50984 | -77.31813 | 162 ft | 60 kts | 328° |
| 2026-04-26 23:14 | 37.51317 | -77.32076 | 166 ft | 47 kts | 327° |
| 2026-04-26 23:14 | 37.51539 | -77.32261 | 166 ft | 17 kts | 326° |
| 2026-04-26 23:15 | 37.51619 | -77.32361 | 167 ft | 16 kts | 294° |
| 2026-04-26 23:15 | 37.51638 | -77.32513 | 166 ft | 18 kts | 271° |
| 2026-04-26 23:15 | 37.51637 | -77.32674 | 166 ft | 18 kts | 268° |
| 2026-04-26 23:15 | 37.51638 | -77.32836 | 166 ft | 18 kts | 271° |
| 2026-04-26 23:16 | 37.51662 | -77.32969 | 166 ft | 13 kts | 330° |
| 2026-04-26 23:16 | 37.51706 | -77.32958 | 166 ft | 3 kts | 59° |
| 2026-04-26 23:16 | 37.51707 | -77.32955 | 166 ft | 0 kts | 64° |